Terminal Aerodrome Forecast
Issued by NWS Salt Lake City, UT

Home | Current Version | Previous Version | Text Only | Print | Product List | Glossary On
Versions: 1 2 3 4 5 6 7 8 9 10 11 12 13 14 15 16 17 18 19 20 21 22 23 24
000
FTUS45 KSLC 310520
TAFSLC
TAF
KSLC 310520Z 3106/0112 15009KT P6SM BKN200
     FM311700 18014G21KT P6SM SCT200
     FM312100 18016G26KT P6SM SCT120 BKN200
     FM010100 19013KT P6SM SCT120 BKN200=

USA.gov is the U.S. government's official web portal to all federal, state and local government web resources and services.